createdAt,value
2022-11-17T00:02:03.869Z,8.63
2022-11-17T00:04:48.653Z,8.71
2022-11-17T00:07:33.502Z,8.75
2022-11-17T00:10:18.145Z,8.82
2022-11-17T00:13:02.920Z,8.88
2022-11-17T00:15:47.686Z,8.96
2022-11-17T00:18:32.333Z,9.02
2022-11-17T00:21:17.126Z,9.07
2022-11-17T00:24:01.873Z,9.15
2022-11-17T00:26:46.654Z,9.20
2022-11-17T00:29:31.486Z,9.20
2022-11-17T00:32:16.074Z,9.28
2022-11-17T00:35:00.727Z,9.25
2022-11-17T00:37:45.337Z,9.19
2022-11-17T00:40:30.082Z,9.08
2022-11-17T00:43:14.750Z,8.96
2022-11-17T00:45:59.463Z,8.87
2022-11-17T00:48:44.153Z,8.81
2022-11-17T00:51:29.002Z,8.88
2022-11-17T00:54:13.791Z,8.95
2022-11-17T00:56:58.678Z,8.97
2022-11-17T00:59:43.622Z,9.02
2022-11-17T01:02:28.260Z,8.93
2022-11-17T01:05:13.027Z,8.89
2022-11-17T01:07:57.828Z,8.79
2022-11-17T01:10:42.666Z,8.73
2022-11-17T01:13:27.308Z,8.65
2022-11-17T01:16:12.040Z,8.62
2022-11-17T01:18:56.653Z,8.67
2022-11-17T01:21:41.459Z,8.62
2022-11-17T01:24:26.237Z,8.49
2022-11-17T01:27:10.982Z,8.55
2022-11-17T01:29:55.799Z,8.57
2022-11-17T01:32:40.454Z,8.59
2022-11-17T01:35:25.240Z,8.64
2022-11-17T01:38:09.928Z,8.62
2022-11-17T01:40:54.684Z,8.52
2022-11-17T01:43:39.302Z,8.54
2022-11-17T01:46:24.128Z,8.65
2022-11-17T01:49:08.927Z,8.73
2022-11-17T01:51:53.644Z,8.84
2022-11-17T01:54:38.334Z,8.97
2022-11-17T01:57:23.070Z,9.08
2022-11-17T02:00:07.758Z,9.12
2022-11-17T02:02:52.508Z,9.08
2022-11-17T02:05:37.378Z,9.02
2022-11-17T02:08:22.046Z,9.03
2022-11-17T02:11:06.812Z,9.12
2022-11-17T02:13:51.533Z,9.17
2022-11-17T02:16:36.292Z,9.25
2022-11-17T02:19:20.977Z,9.35
2022-11-17T02:22:05.735Z,9.39
2022-11-17T02:24:50.405Z,9.39
2022-11-17T02:27:35.358Z,9.40
2022-11-17T02:30:20.049Z,9.41
2022-11-17T02:33:04.923Z,9.43
2022-11-17T02:35:49.718Z,9.42
2022-11-17T02:38:34.475Z,9.38
2022-11-17T02:41:19.262Z,9.35
2022-11-17T02:44:04.004Z,9.43
2022-11-17T02:46:48.945Z,9.37
2022-11-17T02:49:33.753Z,9.29
2022-11-17T02:52:18.474Z,9.30
2022-11-17T02:55:03.093Z,9.31
2022-11-17T02:57:47.776Z,9.36
2022-11-17T03:00:32.718Z,9.36
2022-11-17T03:03:17.331Z,9.23
2022-11-17T03:06:02.103Z,9.08
2022-11-17T03:08:46.771Z,9.07
2022-11-17T03:11:31.496Z,9.13
2022-11-17T03:14:16.558Z,9.09
2022-11-17T03:17:01.726Z,9.05
2022-11-17T03:19:46.484Z,9.02
2022-11-17T03:22:31.298Z,9.00
2022-11-17T03:25:16.148Z,9.01
2022-11-17T03:28:00.804Z,8.89
2022-11-17T03:30:45.726Z,8.90
2022-11-17T03:33:30.433Z,8.93
2022-11-17T03:36:15.272Z,8.88
2022-11-17T03:38:59.840Z,8.87
2022-11-17T03:41:44.584Z,8.84
2022-11-17T03:44:29.347Z,8.91
2022-11-17T03:47:14.160Z,8.89
2022-11-17T03:49:58.898Z,8.80
2022-11-17T03:52:43.628Z,8.67
2022-11-17T03:55:28.456Z,8.49
2022-11-17T03:58:13.176Z,8.43
2022-11-17T04:00:57.896Z,8.39
2022-11-17T04:03:42.579Z,8.36
2022-11-17T04:06:27.268Z,8.33
2022-11-17T04:09:11.867Z,8.36
2022-11-17T04:11:56.640Z,8.28
2022-11-17T04:14:41.440Z,8.22
2022-11-17T04:17:26.725Z,8.23
2022-11-17T04:20:11.449Z,8.22
2022-11-17T04:22:56.248Z,8.23
2022-11-17T04:25:41.118Z,8.24
2022-11-17T04:28:25.939Z,8.32
2022-11-17T04:31:10.703Z,8.45
2022-11-17T04:33:55.427Z,8.52
2022-11-17T04:36:40.246Z,8.58
2022-11-17T04:39:25.018Z,8.63
2022-11-17T04:42:09.740Z,8.67
2022-11-17T04:44:54.508Z,8.67
2022-11-17T04:47:39.164Z,8.60
2022-11-17T04:50:23.920Z,8.63
2022-11-17T04:53:08.718Z,8.61
2022-11-17T04:55:53.298Z,8.51
2022-11-17T04:58:38.024Z,8.35
2022-11-17T05:01:22.699Z,8.24
2022-11-17T05:04:07.339Z,8.13
2022-11-17T05:06:52.272Z,7.99
2022-11-17T05:09:36.858Z,8.01
2022-11-17T05:12:21.618Z,8.00
2022-11-17T05:15:06.280Z,7.79
2022-11-17T05:17:51.182Z,7.72
2022-11-17T05:20:35.811Z,7.60
2022-11-17T05:23:20.657Z,7.59
2022-11-17T05:26:05.287Z,7.68
2022-11-17T05:28:50.051Z,7.71
2022-11-17T05:31:34.834Z,7.73
2022-11-17T05:34:19.472Z,7.60
2022-11-17T05:37:04.432Z,7.55
2022-11-17T05:39:49.109Z,7.63
2022-11-17T05:42:33.950Z,7.62
2022-11-17T05:45:18.827Z,7.71
2022-11-17T05:48:03.535Z,7.69
2022-11-17T05:50:48.108Z,7.70
2022-11-17T05:53:33.360Z,7.75
2022-11-17T05:56:18.151Z,7.83
2022-11-17T05:59:02.873Z,7.85
2022-11-17T06:01:47.646Z,7.92
2022-11-17T06:04:32.465Z,7.89
2022-11-17T06:07:17.253Z,7.83
2022-11-17T06:10:02.011Z,7.75
2022-11-17T06:12:46.715Z,7.71
2022-11-17T06:15:31.583Z,7.79
2022-11-17T06:18:16.521Z,7.85
2022-11-17T06:21:01.338Z,7.94
2022-11-17T06:23:46.038Z,7.97
2022-11-17T06:26:30.729Z,8.02
2022-11-17T06:29:15.403Z,8.04
2022-11-17T06:32:00.083Z,7.98
2022-11-17T06:34:47.982Z,8.07
2022-11-17T06:37:35.311Z,8.16
2022-11-17T06:40:19.952Z,8.25
2022-11-17T06:43:04.692Z,8.29
2022-11-17T06:45:49.484Z,8.20
2022-11-17T06:48:34.488Z,8.13
2022-11-17T06:51:19.459Z,8.01
2022-11-17T06:54:04.205Z,7.89
2022-11-17T06:56:48.912Z,7.78
2022-11-17T06:59:33.740Z,7.72
2022-11-17T07:02:18.464Z,7.68
2022-11-17T07:05:03.110Z,7.58
2022-11-17T07:07:47.919Z,7.53
2022-11-17T07:10:32.680Z,7.63
2022-11-17T07:13:17.469Z,7.69
2022-11-17T07:16:02.216Z,7.89
2022-11-17T07:18:46.767Z,8.14
2022-11-17T07:21:31.651Z,8.21
2022-11-17T07:24:16.303Z,8.36
2022-11-17T07:27:01.262Z,8.50
2022-11-17T07:29:46.107Z,8.74
2022-11-17T07:32:30.860Z,9.02
2022-11-17T07:35:15.505Z,9.30
2022-11-17T07:38:00.411Z,9.44
2022-11-17T07:40:45.101Z,9.53
2022-11-17T07:43:30.003Z,9.59
2022-11-17T07:46:14.810Z,9.66
2022-11-17T07:48:59.356Z,9.76
2022-11-17T07:51:44.266Z,9.99
2022-11-17T07:54:28.862Z,10.21
2022-11-17T07:57:13.588Z,10.47
2022-11-17T07:59:58.318Z,10.67
2022-11-17T08:02:43.043Z,10.77
2022-11-17T08:05:28.962Z,10.74
2022-11-17T08:08:14.121Z,10.74
2022-11-17T08:10:58.959Z,10.68
2022-11-17T08:19:22.685Z,10.85
2022-11-17T08:22:07.344Z,10.69
2022-11-17T08:24:52.236Z,10.77
2022-11-17T08:27:37.092Z,10.90
2022-11-17T08:30:21.925Z,11.07
2022-11-17T08:33:06.771Z,11.21
2022-11-17T08:35:51.581Z,11.09
2022-11-17T08:38:36.735Z,11.19
2022-11-17T08:41:21.834Z,11.24
2022-11-17T08:44:06.754Z,10.83
2022-11-17T08:46:51.604Z,10.76
2022-11-17T08:49:36.336Z,10.63
2022-11-17T08:52:20.960Z,10.54
2022-11-17T08:55:05.882Z,10.48
2022-11-17T08:57:50.966Z,10.80
2022-11-17T09:00:35.716Z,11.16
2022-11-17T09:03:20.591Z,11.05
2022-11-17T09:06:05.266Z,11.25
2022-11-17T09:08:50.215Z,11.47
2022-11-17T09:11:35.301Z,11.78
2022-11-17T09:14:20.105Z,11.88
2022-11-17T09:17:04.974Z,11.58
2022-11-17T09:19:49.732Z,11.42
2022-11-17T09:22:34.459Z,11.59
2022-11-17T09:25:19.238Z,11.23
2022-11-17T09:28:04.066Z,11.09
2022-11-17T09:30:48.699Z,11.05
2022-11-17T09:33:33.707Z,11.15
2022-11-17T09:36:18.925Z,11.16
2022-11-17T09:39:03.650Z,11.40
2022-11-17T09:41:48.474Z,11.11
2022-11-17T09:44:33.194Z,10.95
2022-11-17T09:47:18.074Z,11.25
2022-11-17T09:50:03.016Z,11.57
2022-11-17T09:52:47.909Z,11.80
2022-11-17T09:55:34.411Z,11.70
2022-11-17T09:58:19.395Z,11.44
2022-11-17T10:01:04.082Z,11.21
2022-11-17T10:03:49.034Z,11.18
2022-11-17T10:06:34.062Z,11.30
2022-11-17T10:09:24.049Z,11.58
2022-11-17T10:12:10.369Z,11.76
2022-11-17T10:14:55.763Z,11.99
2022-11-17T10:17:40.523Z,12.21
2022-11-17T10:20:25.392Z,12.11
2022-11-17T10:23:09.993Z,12.25
2022-11-17T10:25:54.920Z,12.35
2022-11-17T10:28:39.491Z,12.35
2022-11-17T10:31:24.190Z,12.31
2022-11-17T10:34:08.890Z,12.24
2022-11-17T10:36:53.826Z,12.53
2022-11-17T10:39:38.595Z,12.64
2022-11-17T10:42:23.445Z,12.62
2022-11-17T10:45:08.300Z,12.85
2022-11-17T10:47:53.094Z,13.11
2022-11-17T10:50:37.898Z,13.04
2022-11-17T10:53:22.619Z,13.28
2022-11-17T10:56:07.370Z,13.33
2022-11-17T10:58:52.040Z,13.67
2022-11-17T11:01:36.826Z,13.58
2022-11-17T11:04:21.437Z,13.77
2022-11-17T11:07:06.223Z,14.09
2022-11-17T11:09:50.915Z,14.34
2022-11-17T11:12:35.662Z,14.05
2022-11-17T11:15:20.472Z,13.82
2022-11-17T11:18:05.267Z,13.72
2022-11-17T11:20:50.275Z,13.78
2022-11-17T11:23:34.929Z,13.99
2022-11-17T11:26:19.784Z,14.14
2022-11-17T11:29:04.622Z,14.13
2022-11-17T11:31:49.385Z,14.12
2022-11-17T11:34:34.197Z,14.06
2022-11-17T11:37:18.908Z,14.26
2022-11-17T11:40:03.662Z,14.21
2022-11-17T11:42:48.421Z,14.15
2022-11-17T11:45:33.194Z,14.11
2022-11-17T11:48:17.832Z,14.24
2022-11-17T11:51:02.726Z,14.23
2022-11-17T11:53:47.536Z,14.29
2022-11-17T11:56:32.319Z,14.42
2022-11-17T11:59:17.020Z,14.57
2022-11-17T12:02:01.895Z,14.66
2022-11-17T12:04:46.692Z,14.57
2022-11-17T12:07:31.535Z,14.53
2022-11-17T12:10:16.631Z,14.41
2022-11-17T12:13:01.369Z,14.36
2022-11-17T12:15:46.135Z,14.07
2022-11-17T12:18:30.768Z,14.04
2022-11-17T12:21:15.555Z,14.13
2022-11-17T12:24:00.160Z,14.20
2022-11-17T12:26:45.050Z,14.08
2022-11-17T12:29:29.831Z,14.17
2022-11-17T12:32:14.650Z,14.18
2022-11-17T12:34:59.444Z,14.27
2022-11-17T12:37:44.173Z,14.46
2022-11-17T12:40:29.007Z,14.47
2022-11-17T12:43:13.778Z,14.10
2022-11-17T12:45:58.594Z,13.91
2022-11-17T12:48:43.439Z,13.85
2022-11-17T12:51:28.229Z,13.86
2022-11-17T12:54:13.486Z,13.90
2022-11-17T12:56:58.333Z,14.02
2022-11-17T12:59:42.998Z,14.11
2022-11-17T13:02:27.836Z,14.13
2022-11-17T13:05:12.446Z,14.22
2022-11-17T13:07:57.118Z,14.30
2022-11-17T13:10:41.758Z,14.48
2022-11-17T13:13:26.493Z,14.67
2022-11-17T13:16:11.348Z,14.83
2022-11-17T13:18:56.039Z,14.94
2022-11-17T13:21:40.797Z,14.90
2022-11-17T13:24:25.499Z,14.76
2022-11-17T13:27:10.314Z,14.54
2022-11-17T13:29:55.016Z,14.31
2022-11-17T13:32:39.767Z,14.23
2022-11-17T13:35:24.462Z,14.10
2022-11-17T13:38:09.139Z,14.00
2022-11-17T13:40:53.724Z,13.97
2022-11-17T13:43:38.413Z,13.99
2022-11-17T13:46:23.208Z,14.10
2022-11-17T13:49:08.035Z,14.27
2022-11-17T13:51:52.893Z,14.33
2022-11-17T13:54:37.507Z,14.20
2022-11-17T13:57:22.320Z,14.21
2022-11-17T14:00:06.994Z,14.10
2022-11-17T14:02:51.763Z,13.99
2022-11-17T14:05:36.552Z,13.87
2022-11-17T14:08:21.403Z,13.74
2022-11-17T14:11:06.111Z,13.55
2022-11-17T14:13:50.860Z,13.47
2022-11-17T14:16:35.561Z,13.38
2022-11-17T14:19:20.744Z,13.37
2022-11-17T14:22:05.665Z,13.36
2022-11-17T14:24:50.331Z,13.27
2022-11-17T14:27:35.211Z,13.22
2022-11-17T14:30:19.937Z,13.07
2022-11-17T14:33:10.496Z,12.93
2022-11-17T14:35:58.179Z,12.84
2022-11-17T14:38:42.794Z,12.80
2022-11-17T14:41:27.566Z,12.69
2022-11-17T14:44:12.387Z,12.56
2022-11-17T14:46:57.000Z,12.48
2022-11-17T14:49:41.878Z,12.48
2022-11-17T14:52:26.564Z,12.42
2022-11-17T14:55:11.289Z,12.37
2022-11-17T14:57:55.993Z,12.28
2022-11-17T15:00:40.816Z,12.17
2022-11-17T15:03:25.524Z,12.13
2022-11-17T15:06:12.095Z,12.15
2022-11-17T15:08:59.216Z,12.09
2022-11-17T15:11:44.031Z,12.05
2022-11-17T15:14:28.802Z,12.09
2022-11-17T15:17:14.771Z,11.99
2022-11-17T15:19:59.552Z,11.87
2022-11-17T15:22:44.289Z,11.73
2022-11-17T15:25:29.476Z,11.69
2022-11-17T15:28:20.516Z,11.60
2022-11-17T15:31:07.322Z,11.68
2022-11-17T15:33:52.139Z,11.79
2022-11-17T15:36:36.994Z,11.76
2022-11-17T15:39:21.875Z,11.79
2022-11-17T15:42:06.735Z,11.78
2022-11-17T15:44:51.458Z,11.72
2022-11-17T15:47:36.366Z,11.72
2022-11-17T15:50:21.221Z,11.69
2022-11-17T15:53:05.902Z,11.58
2022-11-17T15:55:50.685Z,11.57
2022-11-17T15:58:35.441Z,11.50
2022-11-17T16:01:20.285Z,11.39
2022-11-17T16:04:05.343Z,11.35
2022-11-17T16:06:50.033Z,11.32
2022-11-17T16:09:34.775Z,11.28
2022-11-17T16:12:19.663Z,11.22
2022-11-17T16:15:04.325Z,11.17
2022-11-17T16:17:48.976Z,11.11
2022-11-17T16:20:33.768Z,11.07
2022-11-17T16:23:18.457Z,11.03
2022-11-17T16:26:03.198Z,11.02
2022-11-17T16:28:47.814Z,11.01
2022-11-17T16:31:32.539Z,11.00
2022-11-17T16:34:17.248Z,10.99
2022-11-17T16:37:02.051Z,10.92
2022-11-17T16:39:46.796Z,10.87
2022-11-17T16:42:31.537Z,10.84
2022-11-17T16:45:16.081Z,10.80
2022-11-17T16:48:00.838Z,10.70
2022-11-17T16:50:45.519Z,10.63
2022-11-17T16:53:30.353Z,10.64
2022-11-17T16:56:15.170Z,10.67
2022-11-17T16:58:59.889Z,10.69
2022-11-17T17:01:44.742Z,10.63
2022-11-17T17:04:29.556Z,10.59
2022-11-17T17:07:14.412Z,10.59
2022-11-17T17:09:59.151Z,10.50
2022-11-17T17:12:44.088Z,10.46
2022-11-17T17:15:28.764Z,10.44
2022-11-17T17:18:13.448Z,10.37
2022-11-17T17:20:58.149Z,10.40
2022-11-17T17:23:42.845Z,10.40
2022-11-17T17:26:27.709Z,10.37
2022-11-17T17:29:12.416Z,10.42
2022-11-17T17:31:57.173Z,10.41
2022-11-17T17:34:41.989Z,10.38
2022-11-17T17:37:26.928Z,10.32
2022-11-17T17:40:11.543Z,10.23
2022-11-17T17:42:56.194Z,10.16
2022-11-17T17:45:40.855Z,10.09
2022-11-17T17:48:25.672Z,10.13
2022-11-17T17:51:10.477Z,10.26
2022-11-17T17:53:55.374Z,10.24
2022-11-17T17:56:40.216Z,10.21
2022-11-17T17:59:26.161Z,10.29
2022-11-17T18:02:11.016Z,10.33
2022-11-17T18:04:55.761Z,10.40
2022-11-17T18:07:40.552Z,10.49
2022-11-17T18:10:25.323Z,10.56
2022-11-17T18:13:10.997Z,10.60
2022-11-17T18:15:55.950Z,10.59
2022-11-17T18:18:40.675Z,10.68
2022-11-17T18:21:25.628Z,10.75
2022-11-17T18:24:10.404Z,10.81
2022-11-17T18:26:55.091Z,10.83
2022-11-17T18:29:39.900Z,10.85
2022-11-17T18:32:24.739Z,10.87
2022-11-17T18:35:09.370Z,10.82
2022-11-17T18:37:54.136Z,10.76
2022-11-17T18:40:38.775Z,10.71
2022-11-17T18:43:23.437Z,10.81
2022-11-17T18:46:08.340Z,10.78
2022-11-17T18:48:53.010Z,10.76
2022-11-17T18:51:37.749Z,10.76
2022-11-17T18:54:22.359Z,10.79
2022-11-17T18:57:07.042Z,10.83
2022-11-17T18:59:51.771Z,10.87
2022-11-17T19:02:36.536Z,10.86
2022-11-17T19:05:21.238Z,10.86
2022-11-17T19:08:05.921Z,10.86
2022-11-17T19:10:50.740Z,10.88
2022-11-17T19:13:35.525Z,10.89
2022-11-17T19:16:20.275Z,10.93
2022-11-17T19:19:05.127Z,10.90
2022-11-17T19:21:49.973Z,10.88
2022-11-17T19:24:34.618Z,10.86
2022-11-17T19:27:19.457Z,10.80
2022-11-17T19:30:04.197Z,10.77
2022-11-17T19:32:49.002Z,10.73
2022-11-17T19:35:33.545Z,10.73
2022-11-17T19:38:18.273Z,10.70
2022-11-17T19:41:02.892Z,10.69
2022-11-17T19:43:47.657Z,10.69
2022-11-17T19:46:32.429Z,10.70
2022-11-17T19:49:17.455Z,10.74
2022-11-17T19:52:02.476Z,10.78
2022-11-17T19:54:47.111Z,10.75
2022-11-17T19:57:31.998Z,10.77
2022-11-17T20:00:16.642Z,10.78
2022-11-17T20:03:01.565Z,10.66
2022-11-17T20:05:46.329Z,10.55
2022-11-17T20:08:31.191Z,10.41
2022-11-17T20:11:15.829Z,10.25
2022-11-17T20:14:00.663Z,10.26
2022-11-17T20:16:45.399Z,10.32
2022-11-17T20:19:30.235Z,10.33
2022-11-17T20:22:14.989Z,10.25
2022-11-17T20:25:03.391Z,10.17
2022-11-17T20:27:48.596Z,10.10
2022-11-17T20:30:33.349Z,10.01
2022-11-17T20:33:18.201Z,10.12
2022-11-17T20:36:02.792Z,10.13
2022-11-17T20:38:47.501Z,10.10
2022-11-17T20:41:32.348Z,10.05
2022-11-17T20:44:17.147Z,10.10
2022-11-17T20:47:01.905Z,10.12
2022-11-17T20:49:46.544Z,10.18
2022-11-17T20:52:31.253Z,10.15
2022-11-17T20:55:15.860Z,10.18
2022-11-17T20:58:00.669Z,10.25
2022-11-17T21:00:45.456Z,10.29
2022-11-17T21:03:30.703Z,10.30
2022-11-17T21:06:15.552Z,10.30
2022-11-17T21:09:00.266Z,10.28
2022-11-17T21:11:45.112Z,10.30
2022-11-17T21:14:30.552Z,10.24
2022-11-17T21:17:15.752Z,10.20
2022-11-17T21:20:00.502Z,10.19
2022-11-17T21:22:45.257Z,10.12
2022-11-17T21:25:29.945Z,10.10
2022-11-17T21:28:14.708Z,10.05
2022-11-17T21:30:59.501Z,9.96
2022-11-17T21:33:44.223Z,9.87
2022-11-17T21:36:29.094Z,9.90
2022-11-17T21:39:14.213Z,9.87
2022-11-17T21:41:59.521Z,9.79
2022-11-17T21:44:44.217Z,9.84
2022-11-17T21:47:28.965Z,9.68
2022-11-17T21:50:13.678Z,9.53
2022-11-17T21:52:58.457Z,9.35
2022-11-17T21:55:43.305Z,9.28
2022-11-17T21:58:28.070Z,9.18
2022-11-17T22:01:12.954Z,9.05
2022-11-17T22:03:57.782Z,8.91
2022-11-17T22:06:42.588Z,8.52
2022-11-17T22:09:27.409Z,8.36
2022-11-17T22:12:12.240Z,8.24
2022-11-17T22:14:56.828Z,8.28
2022-11-17T22:17:41.625Z,8.29
2022-11-17T22:20:26.303Z,8.33
2022-11-17T22:23:11.136Z,8.31
2022-11-17T22:25:55.719Z,8.31
2022-11-17T22:28:40.372Z,8.42
2022-11-17T22:31:25.082Z,8.50
2022-11-17T22:34:09.803Z,8.55
2022-11-17T22:36:54.654Z,8.60
2022-11-17T22:39:39.467Z,8.68
2022-11-17T22:42:24.874Z,8.71
2022-11-17T22:45:09.558Z,8.74
2022-11-17T22:47:54.267Z,8.78
2022-11-17T22:50:39.076Z,8.87
2022-11-17T22:53:23.965Z,8.87
2022-11-17T22:56:08.723Z,8.89
2022-11-17T22:58:59.340Z,8.87
2022-11-17T23:01:44.697Z,8.79
2022-11-17T23:04:29.574Z,8.68
2022-11-17T23:07:14.251Z,8.70
2022-11-17T23:09:58.969Z,8.72
2022-11-17T23:12:43.598Z,8.72
2022-11-17T23:15:28.571Z,8.78
2022-11-17T23:18:13.253Z,8.70
2022-11-17T23:20:57.984Z,8.70
2022-11-17T23:23:42.667Z,8.73
2022-11-17T23:26:27.379Z,8.65
2022-11-17T23:29:12.075Z,8.65
2022-11-17T23:31:56.789Z,8.63
2022-11-17T23:34:41.736Z,8.62
2022-11-17T23:37:26.412Z,8.64
2022-11-17T23:40:11.224Z,8.63
2022-11-17T23:42:56.025Z,8.62
2022-11-17T23:45:40.850Z,8.63
2022-11-17T23:48:25.567Z,8.68
2022-11-17T23:51:10.329Z,8.66
2022-11-17T23:53:55.059Z,8.62
2022-11-17T23:56:39.723Z,8.55
2022-11-17T23:59:24.432Z,8.60
